sensor_id;sensor_type;location;lat;lon;timestamp;temperature;humidity
31575;DHT22;18182;1.328;103.810;2023-06-26T00:01:36;28.60;99.90
31575;DHT22;18182;1.328;103.810;2023-06-26T00:04:04;28.60;99.90
31575;DHT22;18182;1.328;103.810;2023-06-26T00:06:30;28.60;99.90
31575;DHT22;18182;1.328;103.810;2023-06-26T00:08:56;28.70;99.90
31575;DHT22;18182;1.328;103.810;2023-06-26T00:11:24;28.70;99.90
31575;DHT22;18182;1.328;103.810;2023-06-26T00:13:51;28.70;99.90
31575;DHT22;18182;1.328;103.810;2023-06-26T00:16:17;28.80;99.90
31575;DHT22;18182;1.328;103.810;2023-06-26T00:18:44;28.70;99.90
31575;DHT22;18182;1.328;103.810;2023-06-26T00:21:10;28.80;99.90
31575;DHT22;18182;1.328;103.810;2023-06-26T00:23:36;28.70;99.90
31575;DHT22;18182;1.328;103.810;2023-06-26T00:26:04;28.80;99.90
31575;DHT22;18182;1.328;103.810;2023-06-26T00:28:30;28.80;99.90
31575;DHT22;18182;1.328;103.810;2023-06-26T00:30:56;28.90;99.90
31575;DHT22;18182;1.328;103.810;2023-06-26T00:33:22;28.90;99.90
31575;DHT22;18182;1.328;103.810;2023-06-26T00:35:48;29.00;99.90
31575;DHT22;18182;1.328;103.810;2023-06-26T00:38:14;29.00;99.90
31575;DHT22;18182;1.328;103.810;2023-06-26T00:40:41;29.00;99.90
31575;DHT22;18182;1.328;103.810;2023-06-26T00:43:07;29.00;99.90
31575;DHT22;18182;1.328;103.810;2023-06-26T00:45:33;29.00;99.90
31575;DHT22;18182;1.328;103.810;2023-06-26T00:47:59;29.00;99.90
31575;DHT22;18182;1.328;103.810;2023-06-26T00:50:25;29.00;99.90
31575;DHT22;18182;1.328;103.810;2023-06-26T00:52:52;29.00;99.90
31575;DHT22;18182;1.328;103.810;2023-06-26T00:55:20;29.10;99.90
31575;DHT22;18182;1.328;103.810;2023-06-26T00:57:46;29.10;99.90
31575;DHT22;18182;1.328;103.810;2023-06-26T01:00:14;29.10;99.90
31575;DHT22;18182;1.328;103.810;2023-06-26T01:02:41;29.10;99.90
31575;DHT22;18182;1.328;103.810;2023-06-26T01:05:07;29.20;99.90
31575;DHT22;18182;1.328;103.810;2023-06-26T01:07:36;29.20;99.90
31575;DHT22;18182;1.328;103.810;2023-06-26T01:10:06;29.20;99.90
31575;DHT22;18182;1.328;103.810;2023-06-26T01:12:32;29.10;99.90
31575;DHT22;18182;1.328;103.810;2023-06-26T01:15:02;29.10;99.90
31575;DHT22;18182;1.328;103.810;2023-06-26T01:17:28;29.10;99.90
31575;DHT22;18182;1.328;103.810;2023-06-26T01:19:58;29.10;99.90
31575;DHT22;18182;1.328;103.810;2023-06-26T01:22:36;29.10;99.90
31575;DHT22;18182;1.328;103.810;2023-06-26T01:25:15;29.00;99.90
31575;DHT22;18182;1.328;103.810;2023-06-26T01:27:48;29.10;99.90
31575;DHT22;18182;1.328;103.810;2023-06-26T01:30:14;29.20;99.90
31575;DHT22;18182;1.328;103.810;2023-06-26T01:32:41;29.20;99.90
31575;DHT22;18182;1.328;103.810;2023-06-26T01:35:08;29.30;99.90
31575;DHT22;18182;1.328;103.810;2023-06-26T01:37:34;29.30;99.90
31575;DHT22;18182;1.328;103.810;2023-06-26T01:40:00;29.30;99.90
31575;DHT22;18182;1.328;103.810;2023-06-26T01:42:26;29.30;99.90
31575;DHT22;18182;1.328;103.810;2023-06-26T01:44:53;29.40;99.90
31575;DHT22;18182;1.328;103.810;2023-06-26T01:47:22;29.40;99.90
31575;DHT22;18182;1.328;103.810;2023-06-26T01:52:33;29.50;99.90
31575;DHT22;18182;1.328;103.810;2023-06-26T01:55:15;29.50;99.90
31575;DHT22;18182;1.328;103.810;2023-06-26T01:57:43;29.50;99.90
31575;DHT22;18182;1.328;103.810;2023-06-26T02:00:10;29.50;99.90
31575;DHT22;18182;1.328;103.810;2023-06-26T02:02:37;29.50;99.90
31575;DHT22;18182;1.328;103.810;2023-06-26T02:05:03;29.60;99.90
31575;DHT22;18182;1.328;103.810;2023-06-26T02:07:29;29.60;99.90
31575;DHT22;18182;1.328;103.810;2023-06-26T02:09:55;29.60;99.90
31575;DHT22;18182;1.328;103.810;2023-06-26T02:12:22;29.60;99.90
31575;DHT22;18182;1.328;103.810;2023-06-26T02:14:48;29.60;99.90
31575;DHT22;18182;1.328;103.810;2023-06-26T02:17:15;29.70;99.90
31575;DHT22;18182;1.328;103.810;2023-06-26T02:19:41;29.70;99.90
31575;DHT22;18182;1.328;103.810;2023-06-26T02:22:13;29.80;99.90
31575;DHT22;18182;1.328;103.810;2023-06-26T02:24:40;29.80;99.90
31575;DHT22;18182;1.328;103.810;2023-06-26T02:27:07;29.80;99.90
31575;DHT22;18182;1.328;103.810;2023-06-26T02:29:33;29.90;99.90
31575;DHT22;18182;1.328;103.810;2023-06-26T02:31:59;29.90;99.90
31575;DHT22;18182;1.328;103.810;2023-06-26T02:34:25;29.90;99.90
31575;DHT22;18182;1.328;103.810;2023-06-26T02:36:51;30.00;99.90
31575;DHT22;18182;1.328;103.810;2023-06-26T02:39:21;30.10;99.90
31575;DHT22;18182;1.328;103.810;2023-06-26T02:41:47;30.10;99.90
31575;DHT22;18182;1.328;103.810;2023-06-26T02:44:13;30.20;99.90
31575;DHT22;18182;1.328;103.810;2023-06-26T02:46:40;30.30;99.90
31575;DHT22;18182;1.328;103.810;2023-06-26T02:49:06;30.30;99.90
31575;DHT22;18182;1.328;103.810;2023-06-26T02:51:33;30.30;99.90
31575;DHT22;18182;1.328;103.810;2023-06-26T02:53:59;30.40;99.90
31575;DHT22;18182;1.328;103.810;2023-06-26T02:56:26;30.30;99.90
31575;DHT22;18182;1.328;103.810;2023-06-26T02:58:58;30.40;99.90
31575;DHT22;18182;1.328;103.810;2023-06-26T03:01:24;30.30;99.90
31575;DHT22;18182;1.328;103.810;2023-06-26T03:03:51;30.30;99.90
31575;DHT22;18182;1.328;103.810;2023-06-26T03:06:18;30.30;99.90
31575;DHT22;18182;1.328;103.810;2023-06-26T03:08:44;30.30;99.90
31575;DHT22;18182;1.328;103.810;2023-06-26T03:11:10;30.30;99.90
31575;DHT22;18182;1.328;103.810;2023-06-26T03:13:36;30.30;99.90
31575;DHT22;18182;1.328;103.810;2023-06-26T03:16:03;30.20;99.90
31575;DHT22;18182;1.328;103.810;2023-06-26T03:18:29;30.20;99.90
31575;DHT22;18182;1.328;103.810;2023-06-26T03:20:56;30.30;99.90
31575;DHT22;18182;1.328;103.810;2023-06-26T03:23:23;30.30;99.90
31575;DHT22;18182;1.328;103.810;2023-06-26T03:25:50;30.30;99.90
31575;DHT22;18182;1.328;103.810;2023-06-26T03:28:16;30.30;99.90
31575;DHT22;18182;1.328;103.810;2023-06-26T03:30:43;30.30;99.90
31575;DHT22;18182;1.328;103.810;2023-06-26T03:33:09;30.30;99.90
31575;DHT22;18182;1.328;103.810;2023-06-26T03:35:35;30.30;99.90
31575;DHT22;18182;1.328;103.810;2023-06-26T03:38:01;30.30;99.90
31575;DHT22;18182;1.328;103.810;2023-06-26T03:40:27;30.30;99.90
31575;DHT22;18182;1.328;103.810;2023-06-26T03:42:53;30.30;99.90
31575;DHT22;18182;1.328;103.810;2023-06-26T03:45:19;30.30;99.90
31575;DHT22;18182;1.328;103.810;2023-06-26T03:47:46;30.20;99.90
31575;DHT22;18182;1.328;103.810;2023-06-26T03:50:15;30.20;99.90
31575;DHT22;18182;1.328;103.810;2023-06-26T03:52:42;30.10;99.90
31575;DHT22;18182;1.328;103.810;2023-06-26T03:55:12;30.10;99.90
31575;DHT22;18182;1.328;103.810;2023-06-26T03:57:38;30.10;99.90
31575;DHT22;18182;1.328;103.810;2023-06-26T04:00:04;30.20;99.90
31575;DHT22;18182;1.328;103.810;2023-06-26T04:02:38;30.20;99.90
31575;DHT22;18182;1.328;103.810;2023-06-26T04:05:04;30.20;99.90
31575;DHT22;18182;1.328;103.810;2023-06-26T04:07:30;30.20;99.90
31575;DHT22;18182;1.328;103.810;2023-06-26T04:09:57;30.20;99.90
31575;DHT22;18182;1.328;103.810;2023-06-26T04:12:23;30.30;99.90
31575;DHT22;18182;1.328;103.810;2023-06-26T04:14:49;30.30;99.90
31575;DHT22;18182;1.328;103.810;2023-06-26T04:17:16;30.40;99.90
31575;DHT22;18182;1.328;103.810;2023-06-26T04:19:42;30.50;99.90
31575;DHT22;18182;1.328;103.810;2023-06-26T04:22:08;30.50;99.90
31575;DHT22;18182;1.328;103.810;2023-06-26T04:24:34;30.70;99.90
31575;DHT22;18182;1.328;103.810;2023-06-26T04:27:00;30.70;99.90
31575;DHT22;18182;1.328;103.810;2023-06-26T04:29:26;30.80;99.90
31575;DHT22;18182;1.328;103.810;2023-06-26T04:31:53;30.90;99.90
31575;DHT22;18182;1.328;103.810;2023-06-26T04:34:27;30.90;99.90
31575;DHT22;18182;1.328;103.810;2023-06-26T04:36:53;31.00;99.90
31575;DHT22;18182;1.328;103.810;2023-06-26T04:39:20;30.90;99.90
31575;DHT22;18182;1.328;103.810;2023-06-26T04:41:46;31.00;99.90
31575;DHT22;18182;1.328;103.810;2023-06-26T04:44:12;31.10;99.90
31575;DHT22;18182;1.328;103.810;2023-06-26T04:46:38;31.10;99.90
31575;DHT22;18182;1.328;103.810;2023-06-26T04:49:08;31.10;99.90
31575;DHT22;18182;1.328;103.810;2023-06-26T04:51:34;31.00;99.90
31575;DHT22;18182;1.328;103.810;2023-06-26T04:54:09;31.00;99.90
31575;DHT22;18182;1.328;103.810;2023-06-26T04:56:35;31.00;99.90
31575;DHT22;18182;1.328;103.810;2023-06-26T04:59:02;31.00;99.90
31575;DHT22;18182;1.328;103.810;2023-06-26T05:01:29;30.90;99.90
31575;DHT22;18182;1.328;103.810;2023-06-26T05:03:58;30.90;99.90
31575;DHT22;18182;1.328;103.810;2023-06-26T05:06:24;30.90;99.90
31575;DHT22;18182;1.328;103.810;2023-06-26T05:08:51;30.80;99.90
31575;DHT22;18182;1.328;103.810;2023-06-26T05:11:17;30.90;99.90
31575;DHT22;18182;1.328;103.810;2023-06-26T05:13:43;30.90;99.90
31575;DHT22;18182;1.328;103.810;2023-06-26T05:16:09;30.80;99.90
31575;DHT22;18182;1.328;103.810;2023-06-26T05:18:35;30.80;99.90
31575;DHT22;18182;1.328;103.810;2023-06-26T05:21:02;30.80;99.90
31575;DHT22;18182;1.328;103.810;2023-06-26T05:23:31;31.00;99.90
31575;DHT22;18182;1.328;103.810;2023-06-26T05:25:58;30.90;99.90
31575;DHT22;18182;1.328;103.810;2023-06-26T05:28:24;30.80;99.90
31575;DHT22;18182;1.328;103.810;2023-06-26T05:30:53;30.80;99.90
31575;DHT22;18182;1.328;103.810;2023-06-26T05:33:20;30.80;99.90
31575;DHT22;18182;1.328;103.810;2023-06-26T05:35:47;30.80;99.90
31575;DHT22;18182;1.328;103.810;2023-06-26T05:38:14;30.70;99.90
31575;DHT22;18182;1.328;103.810;2023-06-26T05:40:40;30.70;99.90
31575;DHT22;18182;1.328;103.810;2023-06-26T05:43:06;30.70;99.90
31575;DHT22;18182;1.328;103.810;2023-06-26T05:45:33;30.60;99.90
31575;DHT22;18182;1.328;103.810;2023-06-26T05:47:59;30.60;99.90
31575;DHT22;18182;1.328;103.810;2023-06-26T05:50:25;30.60;99.90
31575;DHT22;18182;1.328;103.810;2023-06-26T05:52:52;30.60;99.90
31575;DHT22;18182;1.328;103.810;2023-06-26T05:55:18;30.60;99.90
31575;DHT22;18182;1.328;103.810;2023-06-26T05:57:45;30.70;99.90
31575;DHT22;18182;1.328;103.810;2023-06-26T06:00:12;30.70;99.90
31575;DHT22;18182;1.328;103.810;2023-06-26T06:02:38;30.80;99.90
31575;DHT22;18182;1.328;103.810;2023-06-26T06:05:05;30.90;99.90
31575;DHT22;18182;1.328;103.810;2023-06-26T06:07:34;30.80;99.90
31575;DHT22;18182;1.328;103.810;2023-06-26T06:10:00;30.80;99.90
31575;DHT22;18182;1.328;103.810;2023-06-26T06:12:26;30.90;99.90
31575;DHT22;18182;1.328;103.810;2023-06-26T06:14:53;30.90;99.90
31575;DHT22;18182;1.328;103.810;2023-06-26T06:17:19;30.80;99.90
31575;DHT22;18182;1.328;103.810;2023-06-26T06:19:46;30.90;99.90
31575;DHT22;18182;1.328;103.810;2023-06-26T06:22:12;31.00;99.90
31575;DHT22;18182;1.328;103.810;2023-06-26T06:24:38;31.00;99.90
31575;DHT22;18182;1.328;103.810;2023-06-26T06:27:04;31.10;99.90
31575;DHT22;18182;1.328;103.810;2023-06-26T06:29:30;31.00;99.90
31575;DHT22;18182;1.328;103.810;2023-06-26T06:31:57;31.00;99.90
31575;DHT22;18182;1.328;103.810;2023-06-26T06:34:23;31.00;99.90
31575;DHT22;18182;1.328;103.810;2023-06-26T06:36:49;31.00;99.90
31575;DHT22;18182;1.328;103.810;2023-06-26T06:39:16;31.00;99.90
31575;DHT22;18182;1.328;103.810;2023-06-26T06:41:42;31.10;99.90
31575;DHT22;18182;1.328;103.810;2023-06-26T06:44:08;31.10;99.90
31575;DHT22;18182;1.328;103.810;2023-06-26T06:46:34;31.10;99.90
31575;DHT22;18182;1.328;103.810;2023-06-26T06:49:00;31.10;99.90
31575;DHT22;18182;1.328;103.810;2023-06-26T06:51:27;31.00;99.90
31575;DHT22;18182;1.328;103.810;2023-06-26T06:53:53;31.00;99.90
31575;DHT22;18182;1.328;103.810;2023-06-26T06:56:19;31.10;99.90
31575;DHT22;18182;1.328;103.810;2023-06-26T06:58:45;31.20;99.90
31575;DHT22;18182;1.328;103.810;2023-06-26T07:01:12;31.20;99.90
31575;DHT22;18182;1.328;103.810;2023-06-26T07:03:39;31.30;99.90
31575;DHT22;18182;1.328;103.810;2023-06-26T07:06:05;31.40;99.90
31575;DHT22;18182;1.328;103.810;2023-06-26T07:08:31;31.40;99.90
31575;DHT22;18182;1.328;103.810;2023-06-26T07:10:57;31.40;99.90
31575;DHT22;18182;1.328;103.810;2023-06-26T07:13:27;31.40;99.90
31575;DHT22;18182;1.328;103.810;2023-06-26T07:15:53;31.50;99.90
31575;DHT22;18182;1.328;103.810;2023-06-26T07:18:19;31.50;99.90
31575;DHT22;18182;1.328;103.810;2023-06-26T07:20:45;31.60;99.90
31575;DHT22;18182;1.328;103.810;2023-06-26T07:23:11;31.60;99.90
31575;DHT22;18182;1.328;103.810;2023-06-26T07:25:37;31.60;99.90
31575;DHT22;18182;1.328;103.810;2023-06-26T07:28:05;31.70;99.90
31575;DHT22;18182;1.328;103.810;2023-06-26T07:30:35;31.70;99.90
31575;DHT22;18182;1.328;103.810;2023-06-26T07:33:01;31.60;99.90
31575;DHT22;18182;1.328;103.810;2023-06-26T07:35:27;31.60;99.90
31575;DHT22;18182;1.328;103.810;2023-06-26T07:37:53;31.70;99.90
31575;DHT22;18182;1.328;103.810;2023-06-26T07:40:19;31.80;99.90
31575;DHT22;18182;1.328;103.810;2023-06-26T07:42:46;31.90;99.90
31575;DHT22;18182;1.328;103.810;2023-06-26T07:45:12;31.90;99.90
31575;DHT22;18182;1.328;103.810;2023-06-26T07:47:38;32.00;99.90
31575;DHT22;18182;1.328;103.810;2023-06-26T07:50:05;32.10;99.90
31575;DHT22;18182;1.328;103.810;2023-06-26T07:52:31;32.10;99.90
31575;DHT22;18182;1.328;103.810;2023-06-26T07:54:57;32.20;99.90
31575;DHT22;18182;1.328;103.810;2023-06-26T07:57:23;32.20;99.90
31575;DHT22;18182;1.328;103.810;2023-06-26T07:59:50;32.30;99.90
31575;DHT22;18182;1.328;103.810;2023-06-26T08:02:16;32.30;99.90
31575;DHT22;18182;1.328;103.810;2023-06-26T08:04:43;32.20;99.90
31575;DHT22;18182;1.328;103.810;2023-06-26T08:07:11;32.10;99.90
31575;DHT22;18182;1.328;103.810;2023-06-26T08:09:37;32.00;99.90
31575;DHT22;18182;1.328;103.810;2023-06-26T08:12:03;31.90;99.90
31575;DHT22;18182;1.328;103.810;2023-06-26T08:14:29;31.90;99.90
31575;DHT22;18182;1.328;103.810;2023-06-26T08:16:57;31.80;99.90
31575;DHT22;18182;1.328;103.810;2023-06-26T08:19:25;31.70;99.90
31575;DHT22;18182;1.328;103.810;2023-06-26T08:21:51;31.70;99.90
31575;DHT22;18182;1.328;103.810;2023-06-26T08:24:17;31.60;99.90
31575;DHT22;18182;1.328;103.810;2023-06-26T08:26:44;31.70;99.90
31575;DHT22;18182;1.328;103.810;2023-06-26T08:29:11;31.60;99.90
31575;DHT22;18182;1.328;103.810;2023-06-26T08:31:38;31.60;99.90
31575;DHT22;18182;1.328;103.810;2023-06-26T08:34:04;31.60;99.90
31575;DHT22;18182;1.328;103.810;2023-06-26T08:36:31;31.70;99.90
31575;DHT22;18182;1.328;103.810;2023-06-26T08:38:57;31.70;99.90
31575;DHT22;18182;1.328;103.810;2023-06-26T08:41:24;31.70;99.90
31575;DHT22;18182;1.328;103.810;2023-06-26T08:43:50;31.70;99.90
31575;DHT22;18182;1.328;103.810;2023-06-26T08:46:18;31.70;99.90
31575;DHT22;18182;1.328;103.810;2023-06-26T08:48:57;31.70;99.90
31575;DHT22;18182;1.328;103.810;2023-06-26T08:51:26;31.70;99.90
31575;DHT22;18182;1.328;103.810;2023-06-26T08:54:00;31.70;99.90
31575;DHT22;18182;1.328;103.810;2023-06-26T08:56:28;31.70;99.90
31575;DHT22;18182;1.328;103.810;2023-06-26T08:58:54;31.70;99.90
31575;DHT22;18182;1.328;103.810;2023-06-26T09:01:21;31.70;99.90
31575;DHT22;18182;1.328;103.810;2023-06-26T09:03:49;31.70;99.90
31575;DHT22;18182;1.328;103.810;2023-06-26T09:06:15;31.70;99.90
31575;DHT22;18182;1.328;103.810;2023-06-26T09:08:41;31.70;99.90
31575;DHT22;18182;1.328;103.810;2023-06-26T09:11:07;31.60;99.90
31575;DHT22;18182;1.328;103.810;2023-06-26T09:13:33;31.60;99.90
31575;DHT22;18182;1.328;103.810;2023-06-26T09:16:03;31.50;99.90
31575;DHT22;18182;1.328;103.810;2023-06-26T09:18:30;31.50;99.90
31575;DHT22;18182;1.328;103.810;2023-06-26T09:20:57;31.50;99.90
31575;DHT22;18182;1.328;103.810;2023-06-26T09:23:23;31.50;99.90
31575;DHT22;18182;1.328;103.810;2023-06-26T09:25:50;31.50;99.90
31575;DHT22;18182;1.328;103.810;2023-06-26T09:28:17;31.50;99.90
31575;DHT22;18182;1.328;103.810;2023-06-26T09:30:44;31.40;99.90
31575;DHT22;18182;1.328;103.810;2023-06-26T09:33:17;31.40;99.90
31575;DHT22;18182;1.328;103.810;2023-06-26T09:35:45;31.40;99.90
31575;DHT22;18182;1.328;103.810;2023-06-26T09:38:11;31.40;99.90
31575;DHT22;18182;1.328;103.810;2023-06-26T09:40:38;31.40;99.90
31575;DHT22;18182;1.328;103.810;2023-06-26T09:43:05;31.30;99.90
31575;DHT22;18182;1.328;103.810;2023-06-26T09:45:32;31.30;99.90
31575;DHT22;18182;1.328;103.810;2023-06-26T09:48:02;31.30;99.90
31575;DHT22;18182;1.328;103.810;2023-06-26T09:50:31;31.30;99.90
31575;DHT22;18182;1.328;103.810;2023-06-26T09:53:09;31.40;99.90
31575;DHT22;18182;1.328;103.810;2023-06-26T09:55:35;31.40;99.90
31575;DHT22;18182;1.328;103.810;2023-06-26T09:58:03;31.30;99.90
31575;DHT22;18182;1.328;103.810;2023-06-26T10:00:32;31.30;99.90
31575;DHT22;18182;1.328;103.810;2023-06-26T10:02:59;31.30;99.90
31575;DHT22;18182;1.328;103.810;2023-06-26T10:05:25;31.30;99.90
31575;DHT22;18182;1.328;103.810;2023-06-26T10:07:52;31.30;99.90
31575;DHT22;18182;1.328;103.810;2023-06-26T10:10:19;31.20;99.90
31575;DHT22;18182;1.328;103.810;2023-06-26T10:12:47;31.10;99.90
31575;DHT22;18182;1.328;103.810;2023-06-26T10:15:14;31.20;99.90
31575;DHT22;18182;1.328;103.810;2023-06-26T10:17:42;31.10;99.90
31575;DHT22;18182;1.328;103.810;2023-06-26T10:20:09;31.10;99.90
31575;DHT22;18182;1.328;103.810;2023-06-26T10:22:44;31.00;99.90
31575;DHT22;18182;1.328;103.810;2023-06-26T10:25:10;31.00;99.90
31575;DHT22;18182;1.328;103.810;2023-06-26T10:27:38;31.00;99.90
31575;DHT22;18182;1.328;103.810;2023-06-26T10:30:06;31.10;99.90
31575;DHT22;18182;1.328;103.810;2023-06-26T10:32:35;31.10;99.90
31575;DHT22;18182;1.328;103.810;2023-06-26T10:35:02;31.10;99.90
31575;DHT22;18182;1.328;103.810;2023-06-26T10:37:41;31.10;99.90
31575;DHT22;18182;1.328;103.810;2023-06-26T10:40:14;31.10;99.90
31575;DHT22;18182;1.328;103.810;2023-06-26T10:42:40;31.10;99.90
31575;DHT22;18182;1.328;103.810;2023-06-26T10:47:42;31.00;99.90
31575;DHT22;18182;1.328;103.810;2023-06-26T10:55:31;30.90;99.90
31575;DHT22;18182;1.328;103.810;2023-06-26T10:58:00;30.80;99.90
31575;DHT22;18182;1.328;103.810;2023-06-26T11:00:28;30.80;99.90
31575;DHT22;18182;1.328;103.810;2023-06-26T11:02:54;30.70;99.90
31575;DHT22;18182;1.328;103.810;2023-06-26T11:05:27;30.70;99.90
31575;DHT22;18182;1.328;103.810;2023-06-26T11:08:03;30.70;99.90
31575;DHT22;18182;1.328;103.810;2023-06-26T11:10:29;30.70;99.90
31575;DHT22;18182;1.328;103.810;2023-06-26T11:12:57;30.70;99.90
31575;DHT22;18182;1.328;103.810;2023-06-26T11:15:24;30.70;99.90
31575;DHT22;18182;1.328;103.810;2023-06-26T11:17:50;30.70;99.90
31575;DHT22;18182;1.328;103.810;2023-06-26T11:20:17;30.70;99.90
31575;DHT22;18182;1.328;103.810;2023-06-26T11:22:43;30.70;99.90
31575;DHT22;18182;1.328;103.810;2023-06-26T11:25:12;30.70;99.90
31575;DHT22;18182;1.328;103.810;2023-06-26T11:30:05;30.60;99.90
31575;DHT22;18182;1.328;103.810;2023-06-26T11:32:31;30.60;99.90
31575;DHT22;18182;1.328;103.810;2023-06-26T11:35:00;30.60;99.90
31575;DHT22;18182;1.328;103.810;2023-06-26T11:37:27;30.60;99.90
31575;DHT22;18182;1.328;103.810;2023-06-26T11:39:53;30.60;99.90
31575;DHT22;18182;1.328;103.810;2023-06-26T11:42:19;30.50;99.90
31575;DHT22;18182;1.328;103.810;2023-06-26T11:44:46;30.50;99.90
31575;DHT22;18182;1.328;103.810;2023-06-26T11:47:18;30.60;99.90
31575;DHT22;18182;1.328;103.810;2023-06-26T11:49:48;30.60;99.90
31575;DHT22;18182;1.328;103.810;2023-06-26T11:52:15;30.50;99.90
31575;DHT22;18182;1.328;103.810;2023-06-26T11:54:41;30.60;99.90
31575;DHT22;18182;1.328;103.810;2023-06-26T11:57:08;30.50;99.90
31575;DHT22;18182;1.328;103.810;2023-06-26T11:59:35;30.50;99.90
31575;DHT22;18182;1.328;103.810;2023-06-26T12:02:04;30.50;99.90
31575;DHT22;18182;1.328;103.810;2023-06-26T12:04:31;30.50;99.90
31575;DHT22;18182;1.328;103.810;2023-06-26T12:06:57;30.50;99.90
31575;DHT22;18182;1.328;103.810;2023-06-26T12:09:24;30.50;99.90
31575;DHT22;18182;1.328;103.810;2023-06-26T12:11:54;30.50;99.90
31575;DHT22;18182;1.328;103.810;2023-06-26T12:14:22;30.50;99.90
31575;DHT22;18182;1.328;103.810;2023-06-26T12:16:48;30.50;99.90
31575;DHT22;18182;1.328;103.810;2023-06-26T12:19:15;30.50;99.90
31575;DHT22;18182;1.328;103.810;2023-06-26T12:24:08;30.50;99.90
31575;DHT22;18182;1.328;103.810;2023-06-26T12:26:34;30.50;99.90
31575;DHT22;18182;1.328;103.810;2023-06-26T12:29:04;30.50;99.90
31575;DHT22;18182;1.328;103.810;2023-06-26T12:31:31;30.50;99.90
31575;DHT22;18182;1.328;103.810;2023-06-26T12:33:57;30.50;99.90
31575;DHT22;18182;1.328;103.810;2023-06-26T12:36:23;30.50;99.90
31575;DHT22;18182;1.328;103.810;2023-06-26T12:38:50;30.50;99.90
31575;DHT22;18182;1.328;103.810;2023-06-26T12:41:16;30.50;99.90
31575;DHT22;18182;1.328;103.810;2023-06-26T12:43:42;30.50;99.90
31575;DHT22;18182;1.328;103.810;2023-06-26T12:46:09;30.50;99.90
31575;DHT22;18182;1.328;103.810;2023-06-26T12:48:41;30.50;99.90
31575;DHT22;18182;1.328;103.810;2023-06-26T12:51:16;30.50;99.90
31575;DHT22;18182;1.328;103.810;2023-06-26T12:53:43;30.40;99.90
31575;DHT22;18182;1.328;103.810;2023-06-26T12:56:09;30.40;99.90
31575;DHT22;18182;1.328;103.810;2023-06-26T12:58:36;30.40;99.90
31575;DHT22;18182;1.328;103.810;2023-06-26T13:01:03;30.40;99.90
31575;DHT22;18182;1.328;103.810;2023-06-26T13:03:29;30.40;99.90
31575;DHT22;18182;1.328;103.810;2023-06-26T13:05:55;30.40;99.90
31575;DHT22;18182;1.328;103.810;2023-06-26T13:08:22;30.40;99.90
31575;DHT22;18182;1.328;103.810;2023-06-26T13:10:48;30.40;99.90
31575;DHT22;18182;1.328;103.810;2023-06-26T13:13:14;30.40;99.90
31575;DHT22;18182;1.328;103.810;2023-06-26T13:15:40;30.40;99.90
31575;DHT22;18182;1.328;103.810;2023-06-26T13:18:06;30.40;99.90
31575;DHT22;18182;1.328;103.810;2023-06-26T13:20:32;30.30;99.90
31575;DHT22;18182;1.328;103.810;2023-06-26T13:22:58;30.30;99.90
31575;DHT22;18182;1.328;103.810;2023-06-26T13:25:24;30.30;99.90
31575;DHT22;18182;1.328;103.810;2023-06-26T13:27:50;30.30;99.90
31575;DHT22;18182;1.328;103.810;2023-06-26T13:30:17;30.30;99.90
31575;DHT22;18182;1.328;103.810;2023-06-26T13:32:43;30.30;99.90
31575;DHT22;18182;1.328;103.810;2023-06-26T13:35:09;30.30;99.90
31575;DHT22;18182;1.328;103.810;2023-06-26T13:37:35;30.30;99.90
31575;DHT22;18182;1.328;103.810;2023-06-26T13:40:02;30.30;99.90
31575;DHT22;18182;1.328;103.810;2023-06-26T13:42:29;30.30;99.90
31575;DHT22;18182;1.328;103.810;2023-06-26T13:44:55;30.40;99.90
31575;DHT22;18182;1.328;103.810;2023-06-26T13:47:21;30.40;99.90
31575;DHT22;18182;1.328;103.810;2023-06-26T13:49:47;30.40;99.90
31575;DHT22;18182;1.328;103.810;2023-06-26T13:52:13;30.40;99.90
31575;DHT22;18182;1.328;103.810;2023-06-26T13:54:40;30.40;99.90
31575;DHT22;18182;1.328;103.810;2023-06-26T13:57:07;30.40;99.90
31575;DHT22;18182;1.328;103.810;2023-06-26T13:59:33;30.50;99.90
31575;DHT22;18182;1.328;103.810;2023-06-26T14:01:59;30.50;99.90
31575;DHT22;18182;1.328;103.810;2023-06-26T14:04:26;30.50;99.90
31575;DHT22;18182;1.328;103.810;2023-06-26T14:06:52;30.50;99.90
31575;DHT22;18182;1.328;103.810;2023-06-26T14:09:18;30.50;99.90
31575;DHT22;18182;1.328;103.810;2023-06-26T14:11:44;30.50;99.90
31575;DHT22;18182;1.328;103.810;2023-06-26T14:14:10;30.50;99.90
31575;DHT22;18182;1.328;103.810;2023-06-26T14:16:36;30.50;99.90
31575;DHT22;18182;1.328;103.810;2023-06-26T14:19:03;30.50;99.90
31575;DHT22;18182;1.328;103.810;2023-06-26T14:21:30;30.50;99.90
31575;DHT22;18182;1.328;103.810;2023-06-26T14:23:56;30.50;99.90
31575;DHT22;18182;1.328;103.810;2023-06-26T14:26:22;30.40;99.90
31575;DHT22;18182;1.328;103.810;2023-06-26T14:28:48;30.40;99.90
31575;DHT22;18182;1.328;103.810;2023-06-26T14:31:15;30.40;99.90
31575;DHT22;18182;1.328;103.810;2023-06-26T14:33:41;30.40;99.90
31575;DHT22;18182;1.328;103.810;2023-06-26T14:36:07;30.50;99.90
31575;DHT22;18182;1.328;103.810;2023-06-26T14:38:33;30.40;99.90
31575;DHT22;18182;1.328;103.810;2023-06-26T14:40:59;30.40;99.90
31575;DHT22;18182;1.328;103.810;2023-06-26T14:43:25;30.40;99.90
31575;DHT22;18182;1.328;103.810;2023-06-26T14:45:55;30.40;99.90
31575;DHT22;18182;1.328;103.810;2023-06-26T14:48:21;30.40;99.90
31575;DHT22;18182;1.328;103.810;2023-06-26T14:50:47;30.40;99.90
31575;DHT22;18182;1.328;103.810;2023-06-26T14:53:13;30.40;99.90
31575;DHT22;18182;1.328;103.810;2023-06-26T14:55:39;30.40;99.90
31575;DHT22;18182;1.328;103.810;2023-06-26T14:58:05;30.30;99.90
31575;DHT22;18182;1.328;103.810;2023-06-26T15:00:32;30.40;99.90
31575;DHT22;18182;1.328;103.810;2023-06-26T15:02:58;30.30;99.90
31575;DHT22;18182;1.328;103.810;2023-06-26T15:05:29;30.30;99.90
31575;DHT22;18182;1.328;103.810;2023-06-26T15:07:59;30.30;99.90
31575;DHT22;18182;1.328;103.810;2023-06-26T15:10:25;30.30;99.90
31575;DHT22;18182;1.328;103.810;2023-06-26T15:12:51;30.30;99.90
31575;DHT22;18182;1.328;103.810;2023-06-26T15:15:18;30.30;99.90
31575;DHT22;18182;1.328;103.810;2023-06-26T15:17:44;30.30;99.90
31575;DHT22;18182;1.328;103.810;2023-06-26T15:20:10;30.30;99.90
31575;DHT22;18182;1.328;103.810;2023-06-26T15:22:36;30.30;99.90
31575;DHT22;18182;1.328;103.810;2023-06-26T15:25:03;30.30;99.90
31575;DHT22;18182;1.328;103.810;2023-06-26T15:27:29;30.30;99.90
31575;DHT22;18182;1.328;103.810;2023-06-26T15:29:55;30.20;99.90